Whidbey Island Naval Air Station /Ault Field/ Airport
KNUW : now visible

Airfield :











YOU CAN JOIN US ON...

 
LOGIN :

Register | Disclaimer

   EN    FR    IT 

 









Legend :    VFR   Marginal VFR   IFR   Intensive IFR   Very Intensive IFR
Visi :
Ceiling :
>= 8 km
>= 3000ft
5 to 8 km
1000 to 3000 ft
1500m to 5 km
500 to 1000 ft
800 to 1500m
200 to 500 ft
< 800m
< 200 ft
Symbols :   Thunderstorms  Fog  Heavy snow  Heavy precipitations  Wind > 20 kt






- Airport Elevation : 47 ft


KNUW - Whidbey Island Naval Air Station /Ault Field/

CURRENT METAR :
  • 190756Z 12009KT 8SM -RA FEW025 BKN040 OVC060 13/10 A2981 RMK AO2 SLP094 P0003 T01280100 402000128 $

EXPIRED METARs :
  • 190656Z 14011KT 5SM -RA BKN032 BKN044 OVC050 13/10 A2980 RMK AO2 RAB27 SLP090 P0002 T01280100 $
  • 190633Z 15010KT 10SM -RA SCT032 BKN045 OVC070 13/09 A2979 RMK AO2 RAB27 P0000 T01330094 $
  • 190556Z 15014KT 10SM SCT020 BKN029 BKN080 BKN200 14/10 A2978 RMK AO2 SLP083 T01440100 10183 20144 52014 $

TAF TAF KNUW
Valid from the 19 at 07:00 until the 20 at 07:00 UTC


1907/2007 14008KT 8000 -RA BKN025 BKN035 OVC070 QNH2974INS
BECMG 1907/1909 14010KT 9999 VCSH SCT010 BKN035 OVC050 QNH2978INS
TEMPO 1909/1915 VRB06KT 8000 -RA BR BKN010 OVC020
FM191700 VRB06KT 9999 VCTS SCT010 BKN030 OVC070 QNH2993INS
TEMPO 1917/1923 8000 -RA BKN020 OVC050
FM192300 23009KT 9999 VCTS FEW015 SCT030CB BKN070 BKN250 QNH3002INS
TEMPO 2000/2006 8000 -RA FEW015 BKN035CB BKN080 T12/1913Z T18/1922Z FS30148
KZSE FIR / North America



MET'MAP, your aeronautical weather chart ! - Copyright ORBIFLY December 2007 - Disclaimer

ORBIFLY MET'MAP TEAM :

Programming & Development : Alexandra Zaïnal
Concept & original design : Baudouin d'Aumeries
Assistance for programming : Marc-Olivier Méhu
Technical & hardware support : Manuel Goepfert

Contact : metmap@orbifly.com




SOURCES & CREDITS :

   NOAA       Earth
Advisory